createdAt,value
2023-04-21T00:00:38.214Z,117
2023-04-21T00:01:45.009Z,119
2023-04-21T00:02:52.089Z,118
2023-04-21T00:03:58.742Z,116
2023-04-21T00:05:05.641Z,112
2023-04-21T00:06:14.925Z,115
2023-04-21T00:07:21.683Z,110
2023-04-21T00:08:28.453Z,112
2023-04-21T00:09:35.408Z,115
2023-04-21T00:10:42.132Z,119
2023-04-21T00:11:48.950Z,123
2023-04-21T00:12:55.763Z,111
2023-04-21T00:14:02.598Z,114
2023-04-21T00:15:09.446Z,117
2023-04-21T00:16:16.239Z,113
2023-04-21T00:17:23.012Z,118
2023-04-21T00:18:29.779Z,112
2023-04-21T00:19:36.683Z,110
2023-04-21T00:20:43.460Z,114
2023-04-21T00:21:50.358Z,122
2023-04-21T00:22:57.206Z,118
2023-04-21T00:24:04.008Z,124
2023-04-21T00:25:11.101Z,119
2023-04-21T00:26:17.989Z,117
2023-04-21T00:27:24.775Z,117
2023-04-21T00:28:31.650Z,118
2023-04-21T00:29:38.520Z,115
2023-04-21T00:30:45.323Z,113
2023-04-21T00:31:52.229Z,114
2023-04-21T00:32:59.075Z,109
2023-04-21T00:34:05.924Z,113
2023-04-21T00:35:12.880Z,112
2023-04-21T00:36:19.737Z,111
2023-04-21T00:37:26.609Z,109
2023-04-21T00:38:33.479Z,107
2023-04-21T00:39:40.279Z,114
2023-04-21T00:40:47.099Z,105
2023-04-21T00:41:53.926Z,109
2023-04-21T00:43:00.858Z,108
2023-04-21T00:44:10.789Z,109
2023-04-21T00:45:17.593Z,102
2023-04-21T00:46:24.460Z,99
2023-04-21T00:47:31.354Z,103
2023-04-21T00:48:38.218Z,104
2023-04-21T00:49:45.071Z,99
2023-04-21T00:50:51.881Z,103
2023-04-21T00:51:58.714Z,101
2023-04-21T00:53:05.605Z,107
2023-04-21T00:54:12.387Z,100
2023-04-21T00:55:19.162Z,99
2023-04-21T00:56:26.011Z,103
2023-04-21T00:57:32.835Z,106
2023-04-21T00:58:39.634Z,107
2023-04-21T00:59:46.409Z,107
2023-04-21T01:00:53.280Z,96
2023-04-21T01:02:00.137Z,103
2023-04-21T01:03:07.047Z,101
2023-04-21T01:04:13.679Z,97
2023-04-21T01:05:20.479Z,101
2023-04-21T01:06:27.321Z,102
2023-04-21T01:07:34.180Z,103
2023-04-21T01:08:40.985Z,103
2023-04-21T01:09:47.800Z,101
2023-04-21T01:10:54.645Z,101
2023-04-21T01:12:01.436Z,102
2023-04-21T01:13:08.429Z,98
2023-04-21T01:14:15.254Z,98
2023-04-21T01:15:22.097Z,98
2023-04-21T01:16:28.959Z,98
2023-04-21T01:17:35.799Z,96
2023-04-21T01:18:42.658Z,96
2023-04-21T01:19:49.465Z,96
2023-04-21T01:20:56.310Z,95
2023-04-21T01:22:03.122Z,99
2023-04-21T01:23:10.022Z,98
2023-04-21T01:24:16.805Z,94
2023-04-21T01:25:23.637Z,93
2023-04-21T01:26:30.679Z,95
2023-04-21T01:27:37.567Z,95
2023-04-21T01:28:44.326Z,101
2023-04-21T01:29:51.194Z,96
2023-04-21T01:30:58.102Z,106
2023-04-21T01:32:05.056Z,97
2023-04-21T01:33:11.900Z,92
2023-04-21T01:34:18.699Z,93
2023-04-21T01:35:25.548Z,91
2023-04-21T01:36:32.527Z,99
2023-04-21T01:37:39.366Z,98
2023-04-21T01:38:46.177Z,96
2023-04-21T01:39:53.044Z,94
2023-04-21T01:40:59.953Z,94
2023-04-21T01:42:06.812Z,93
2023-04-21T01:43:13.679Z,96
2023-04-21T01:44:20.632Z,96
2023-04-21T01:45:27.511Z,93
2023-04-21T01:46:34.447Z,95
2023-04-21T01:47:41.259Z,88
2023-04-21T01:48:48.081Z,88
2023-04-21T01:49:54.849Z,95
2023-04-21T01:51:01.656Z,91
2023-04-21T01:52:08.488Z,94
2023-04-21T01:53:15.320Z,91
2023-04-21T01:54:22.129Z,104
2023-04-21T01:55:28.992Z,100
2023-04-21T01:56:35.844Z,108
2023-04-21T01:57:42.659Z,111
2023-04-21T01:58:49.541Z,111
2023-04-21T01:59:56.393Z,116
2023-04-21T02:01:03.288Z,126
2023-04-21T02:02:10.267Z,123
2023-04-21T02:03:17.045Z,115
2023-04-21T02:04:24.030Z,124
2023-04-21T02:05:30.675Z,119
2023-04-21T02:06:37.451Z,126
2023-04-21T02:07:44.278Z,122
2023-04-21T02:08:51.113Z,122
2023-04-21T02:09:57.950Z,114
2023-04-21T02:11:04.915Z,123
2023-04-21T02:12:11.768Z,122
2023-04-21T02:13:18.539Z,115
2023-04-21T02:14:25.371Z,117
2023-04-21T02:15:32.194Z,121
2023-04-21T02:16:39.073Z,124
2023-04-21T02:17:45.999Z,113
2023-04-21T02:18:52.880Z,119
2023-04-21T02:20:00.477Z,113
2023-04-21T02:21:06.689Z,110
2023-04-21T02:22:13.536Z,133
2023-04-21T02:23:20.472Z,109
2023-04-21T02:24:27.294Z,107
2023-04-21T02:25:34.079Z,102
2023-04-21T02:26:40.894Z,106
2023-04-21T02:27:47.732Z,97
2023-04-21T02:28:54.551Z,99
2023-04-21T02:30:01.408Z,96
2023-04-21T02:31:08.705Z,102
2023-04-21T02:32:25.335Z,94
2023-04-21T02:33:22.472Z,91
2023-04-21T02:34:29.248Z,94
2023-04-21T02:35:36.087Z,91
2023-04-21T02:36:43.055Z,88
2023-04-21T02:37:49.910Z,89
2023-04-21T02:38:56.794Z,85
2023-04-21T02:40:03.600Z,78
2023-04-21T02:41:10.734Z,82
2023-04-21T02:42:17.593Z,84
2023-04-21T02:43:24.447Z,81
2023-04-21T02:44:31.398Z,76
2023-04-21T02:45:38.237Z,75
2023-04-21T02:46:45.135Z,73
2023-04-21T02:47:52.037Z,74
2023-04-21T02:48:58.927Z,71
2023-04-21T02:50:05.741Z,76
2023-04-21T02:51:13.732Z,77
2023-04-21T02:52:20.566Z,76
2023-04-21T02:53:27.433Z,77
2023-04-21T02:54:34.241Z,76
2023-04-21T02:55:41.118Z,75
2023-04-21T02:56:48.039Z,76
2023-04-21T02:57:54.964Z,76
2023-04-21T02:59:01.811Z,80
2023-04-21T03:00:08.623Z,74
2023-04-21T03:01:18.570Z,77
2023-04-21T03:02:25.376Z,66
2023-04-21T03:03:32.307Z,75
2023-04-21T03:04:39.070Z,67
2023-04-21T03:05:45.927Z,70
2023-04-21T03:06:52.764Z,68
2023-04-21T03:07:59.617Z,69
2023-04-21T03:09:06.410Z,68
2023-04-21T03:10:13.268Z,73
2023-04-21T03:11:20.122Z,73
2023-04-21T03:12:26.889Z,81
2023-04-21T03:13:33.700Z,86
2023-04-21T03:14:40.480Z,88
2023-04-21T03:15:47.302Z,86
2023-04-21T03:16:54.168Z,88
2023-04-21T03:18:00.995Z,80
2023-04-21T03:19:07.873Z,83
2023-04-21T03:20:14.701Z,85
2023-04-21T03:21:21.559Z,81
2023-04-21T03:22:28.442Z,91
2023-04-21T03:23:35.339Z,90
2023-04-21T03:24:42.216Z,94
2023-04-21T03:25:48.978Z,88
2023-04-21T03:26:55.866Z,86
2023-04-21T03:28:02.774Z,83
2023-04-21T03:29:09.626Z,82
2023-04-21T03:30:16.469Z,80
2023-04-21T03:31:23.407Z,81
2023-04-21T03:32:30.353Z,80
2023-04-21T03:33:37.105Z,81
2023-04-21T03:34:43.927Z,81
2023-04-21T03:35:50.820Z,81
2023-04-21T03:36:57.619Z,82
2023-04-21T03:38:04.466Z,78
2023-04-21T03:39:19.632Z,76
2023-04-21T03:40:18.128Z,78
2023-04-21T03:41:25.152Z,78
2023-04-21T03:42:31.964Z,78
2023-04-21T03:43:38.748Z,109
2023-04-21T03:44:45.616Z,126
2023-04-21T03:45:52.468Z,124
2023-04-21T03:47:00.147Z,113
2023-04-21T03:48:07.063Z,113
2023-04-21T03:49:13.923Z,117
2023-04-21T03:50:20.730Z,115
2023-04-21T03:51:27.640Z,114
2023-04-21T03:52:34.397Z,118
2023-04-21T03:53:41.314Z,117
2023-04-21T03:54:48.148Z,127
2023-04-21T03:55:54.948Z,124
2023-04-21T03:57:01.775Z,117
2023-04-21T03:58:08.608Z,116
2023-04-21T03:59:15.378Z,109
2023-04-21T04:00:22.162Z,117
2023-04-21T04:01:29.225Z,119
2023-04-21T04:02:36.174Z,113
2023-04-21T04:03:43.022Z,113
2023-04-21T04:04:49.860Z,117
2023-04-21T04:05:56.555Z,110
2023-04-21T04:07:03.401Z,109
2023-04-21T04:08:10.261Z,105
2023-04-21T04:09:17.274Z,105
2023-04-21T04:10:23.947Z,105
2023-04-21T04:11:30.879Z,104
2023-04-21T04:12:37.706Z,98
2023-04-21T04:13:44.554Z,102
2023-04-21T04:14:51.428Z,106
2023-04-21T04:15:58.357Z,111
2023-04-21T04:17:05.189Z,103
2023-04-21T04:18:12.038Z,101
2023-04-21T04:19:19.087Z,100
2023-04-21T04:20:25.675Z,101
2023-04-21T04:21:32.571Z,92
2023-04-21T04:22:39.513Z,102
2023-04-21T04:23:46.276Z,99
2023-04-21T04:24:55.771Z,97
2023-04-21T04:26:02.593Z,108
2023-04-21T04:27:09.507Z,107
2023-04-21T04:28:19.405Z,106
2023-04-21T04:29:26.220Z,106
2023-04-21T04:30:33.074Z,100
2023-04-21T04:31:40.005Z,97
2023-04-21T04:32:46.829Z,110
2023-04-21T04:33:55.428Z,103
2023-04-21T04:35:00.511Z,107
2023-04-21T04:36:07.429Z,109
2023-04-21T04:37:14.352Z,111
2023-04-21T04:38:21.295Z,108
2023-04-21T04:39:28.240Z,111
2023-04-21T04:40:35.222Z,114
2023-04-21T04:41:42.359Z,114
2023-04-21T04:42:49.398Z,117
2023-04-21T04:43:56.328Z,121
2023-04-21T04:45:03.226Z,121
2023-04-21T04:46:10.256Z,122
2023-04-21T04:47:17.040Z,120
2023-04-21T04:48:23.903Z,118
2023-04-21T04:49:30.695Z,118
2023-04-21T04:50:37.541Z,118
2023-04-21T04:51:44.309Z,117
2023-04-21T04:52:51.060Z,118
2023-04-21T04:53:57.904Z,108
2023-04-21T04:55:04.692Z,113
2023-04-21T04:56:11.433Z,115
2023-04-21T04:57:18.341Z,114
2023-04-21T04:58:25.164Z,113
2023-04-21T04:59:32.470Z,113
2023-04-21T05:00:39.339Z,112
2023-04-21T05:01:46.210Z,116
2023-04-21T05:02:53.102Z,113
2023-04-21T05:03:59.972Z,109
2023-04-21T05:05:06.645Z,116
2023-04-21T05:06:13.628Z,118
2023-04-21T05:07:20.581Z,110
2023-04-21T05:08:27.569Z,112
2023-04-21T05:09:34.665Z,103
2023-04-21T05:10:41.715Z,104
2023-04-21T05:11:48.667Z,98
2023-04-21T05:12:55.474Z,99
2023-04-21T05:14:02.268Z,101
2023-04-21T05:15:09.131Z,99
2023-04-21T05:16:16.041Z,89
2023-04-21T05:17:22.842Z,91
2023-04-21T05:18:29.622Z,84
2023-04-21T05:19:36.469Z,78
2023-04-21T05:20:43.271Z,83
2023-04-21T05:21:50.078Z,77
2023-04-21T05:22:56.938Z,77
2023-04-21T05:24:03.715Z,74
2023-04-21T05:25:10.573Z,72
2023-04-21T05:26:17.415Z,74
2023-04-21T05:27:24.261Z,73
2023-04-21T05:28:31.051Z,73
2023-04-21T05:29:38.014Z,73
2023-04-21T05:30:44.867Z,66
2023-04-21T05:31:51.736Z,69
2023-04-21T05:32:58.599Z,70
2023-04-21T05:34:05.447Z,68
2023-04-21T05:35:12.279Z,65
2023-04-21T05:36:19.099Z,70
2023-04-21T05:37:25.961Z,68
2023-04-21T05:38:32.797Z,69
2023-04-21T05:39:39.629Z,72
2023-04-21T05:40:46.503Z,63
2023-04-21T05:41:59.150Z,68
2023-04-21T05:43:07.218Z,69
2023-04-21T05:44:14.077Z,67
2023-04-21T05:45:20.864Z,66
2023-04-21T05:46:27.724Z,66
2023-04-21T05:47:34.541Z,66
2023-04-21T05:48:41.346Z,61
2023-04-21T05:49:48.165Z,65
2023-04-21T05:50:54.937Z,59
2023-04-21T05:52:01.776Z,61
2023-04-21T05:53:08.544Z,68
2023-04-21T05:54:15.398Z,57
2023-04-21T05:55:22.205Z,59
2023-04-21T05:56:29.065Z,61
2023-04-21T05:57:35.950Z,51
2023-04-21T05:58:42.726Z,54
2023-04-21T05:59:49.559Z,49
2023-04-21T06:00:56.423Z,48
2023-04-21T06:02:03.355Z,52
2023-04-21T06:03:10.393Z,44
2023-04-21T06:04:17.122Z,41
2023-04-21T06:05:23.671Z,34
2023-04-21T06:06:30.951Z,34
2023-04-21T06:07:37.752Z,39
2023-04-21T06:08:44.575Z,38
2023-04-21T06:09:52.277Z,37
2023-04-21T06:10:59.112Z,32
2023-04-21T06:12:05.949Z,26
2023-04-21T06:13:12.802Z,27
2023-04-21T06:14:19.819Z,25
2023-04-21T06:15:26.430Z,25
2023-04-21T06:16:33.306Z,26
2023-04-21T06:17:40.120Z,28
2023-04-21T06:18:46.907Z,25
2023-04-21T06:19:53.819Z,47
2023-04-21T06:21:00.590Z,32
2023-04-21T06:22:07.513Z,33
2023-04-21T06:23:14.295Z,50
2023-04-21T06:24:21.327Z,25
2023-04-21T06:25:31.036Z,28
2023-04-21T06:26:37.808Z,27
2023-04-21T06:27:44.625Z,27
2023-04-21T06:28:51.370Z,28
2023-04-21T06:29:58.124Z,29
2023-04-21T06:31:07.050Z,45
2023-04-21T06:32:11.705Z,40
2023-04-21T06:33:18.552Z,25
2023-04-21T06:34:25.352Z,25
2023-04-21T06:35:32.206Z,27
2023-04-21T06:36:39.092Z,25
2023-04-21T06:37:45.863Z,29
2023-04-21T06:38:53.434Z,28
2023-04-21T06:40:00.335Z,32
2023-04-21T06:41:07.237Z,40
2023-04-21T06:42:14.029Z,25
2023-04-21T06:43:20.875Z,27
2023-04-21T06:44:27.689Z,29
2023-04-21T06:45:34.679Z,30
2023-04-21T06:46:41.576Z,25
2023-04-21T06:47:48.414Z,37
2023-04-21T06:48:55.205Z,45
2023-04-21T06:50:02.033Z,30
2023-04-21T06:51:09.281Z,27
2023-04-21T06:52:17.730Z,25
2023-04-21T06:53:23.061Z,30
2023-04-21T06:54:29.924Z,30
2023-04-21T06:55:36.805Z,27
2023-04-21T06:56:43.661Z,43
2023-04-21T06:57:50.444Z,32
2023-04-21T06:58:57.286Z,25
2023-04-21T07:00:04.146Z,29
2023-04-21T07:01:11.354Z,27
2023-04-21T07:02:18.146Z,25
2023-04-21T07:03:25.038Z,25
2023-04-21T07:04:32.747Z,25
2023-04-21T07:05:39.473Z,36
2023-04-21T07:06:47.141Z,26
2023-04-21T07:07:53.938Z,30
2023-04-21T07:09:00.785Z,29
2023-04-21T07:10:07.656Z,33
2023-04-21T07:11:14.502Z,30
2023-04-21T07:12:22.105Z,29
2023-04-21T07:13:29.019Z,25
2023-04-21T07:14:35.814Z,26
2023-04-21T07:15:42.632Z,25
2023-04-21T07:16:50.295Z,28
2023-04-21T07:17:57.111Z,25
2023-04-21T07:19:03.937Z,27
2023-04-21T07:20:12.450Z,27
2023-04-21T07:21:19.298Z,31
2023-04-21T07:22:26.227Z,30
2023-04-21T07:23:33.014Z,33
2023-04-21T07:24:39.856Z,28
2023-04-21T07:25:46.726Z,30
2023-04-21T07:26:53.583Z,35
2023-04-21T07:28:00.344Z,28
2023-04-21T07:29:07.224Z,25
2023-04-21T07:30:14.915Z,28
2023-04-21T07:31:21.845Z,41
2023-04-21T07:32:28.711Z,29
2023-04-21T07:33:35.592Z,32
2023-04-21T07:34:42.414Z,31
2023-04-21T07:35:49.264Z,34
2023-04-21T07:36:56.199Z,31
2023-04-21T07:38:03.082Z,29
2023-04-21T07:39:09.990Z,47
2023-04-21T07:40:16.958Z,33
2023-04-21T07:41:23.828Z,25
2023-04-21T07:42:30.733Z,27
2023-04-21T07:43:38.583Z,30
2023-04-21T07:44:45.672Z,33
2023-04-21T07:45:52.621Z,31
2023-04-21T07:46:59.272Z,31
2023-04-21T07:48:06.155Z,37
2023-04-21T07:49:12.989Z,37
2023-04-21T07:50:19.963Z,25
2023-04-21T07:51:26.848Z,29
2023-04-21T07:52:33.699Z,42
2023-04-21T07:53:40.531Z,38
2023-04-21T07:54:47.354Z,25
2023-04-21T07:55:54.234Z,25
2023-04-21T07:57:01.104Z,33
2023-04-21T07:58:07.979Z,35
2023-04-21T07:59:14.805Z,51
2023-04-21T08:00:21.709Z,51
2023-04-21T08:01:28.638Z,41
2023-04-21T08:02:35.554Z,48
2023-04-21T08:03:42.465Z,35
2023-04-21T08:04:49.546Z,32
2023-04-21T08:05:56.725Z,25
2023-04-21T08:07:03.145Z,25
2023-04-21T08:08:09.941Z,28
2023-04-21T08:09:16.909Z,25
2023-04-21T08:10:23.841Z,29
2023-04-21T08:11:30.555Z,38
2023-04-21T08:12:37.464Z,36
2023-04-21T08:13:44.274Z,29
2023-04-21T08:14:51.095Z,38
2023-04-21T08:15:58.136Z,25
2023-04-21T08:17:04.950Z,33
2023-04-21T08:18:11.811Z,34
2023-04-21T08:19:19.144Z,35
2023-04-21T08:20:25.519Z,29
2023-04-21T08:21:32.410Z,35
2023-04-21T08:22:39.261Z,34
2023-04-21T08:23:46.115Z,30
2023-04-21T08:24:52.978Z,50
2023-04-21T08:25:59.923Z,43
2023-04-21T08:27:06.783Z,31
2023-04-21T08:28:14.528Z,43
2023-04-21T08:29:21.469Z,34
2023-04-21T08:30:28.376Z,34
2023-04-21T08:31:35.168Z,41
2023-04-21T08:32:42.076Z,31
2023-04-21T08:33:58.396Z,25
2023-04-21T08:34:55.802Z,35
2023-04-21T08:36:05.776Z,52
2023-04-21T08:37:09.725Z,35
2023-04-21T08:38:17.444Z,43
2023-04-21T08:39:24.249Z,27
2023-04-21T08:40:31.400Z,25
2023-04-21T08:41:38.300Z,26
2023-04-21T08:42:45.201Z,37
2023-04-21T08:43:52.017Z,46
2023-04-21T08:44:58.931Z,54
2023-04-21T08:46:05.780Z,45
2023-04-21T08:47:12.641Z,66
2023-04-21T08:48:19.555Z,33
2023-04-21T08:49:26.391Z,55
2023-04-21T08:50:33.169Z,34
2023-04-21T08:51:40.055Z,39
2023-04-21T08:52:46.889Z,56
2023-04-21T08:53:54.624Z,51
2023-04-21T08:55:02.399Z,54
2023-04-21T08:56:11.549Z,35
2023-04-21T08:57:16.443Z,32
2023-04-21T08:58:23.911Z,38
2023-04-21T08:59:30.769Z,39
2023-04-21T09:00:38.604Z,48
2023-04-21T09:01:45.516Z,48
2023-04-21T09:03:02.912Z,25
2023-04-21T09:04:09.706Z,41
2023-04-21T09:05:19.551Z,32
2023-04-21T09:06:26.176Z,48
2023-04-21T09:07:33.046Z,33
2023-04-21T09:08:39.863Z,34
2023-04-21T09:09:46.721Z,34
2023-04-21T09:10:56.396Z,42
2023-04-21T09:12:03.370Z,35
2023-04-21T09:13:10.209Z,27
2023-04-21T09:14:17.145Z,33
2023-04-21T09:15:23.971Z,47
2023-04-21T09:16:30.937Z,38
2023-04-21T09:17:37.894Z,56
2023-04-21T09:18:44.729Z,56
2023-04-21T09:19:51.642Z,36
2023-04-21T09:20:59.319Z,29
2023-04-21T09:22:11.366Z,29
2023-04-21T09:23:20.760Z,37
2023-04-21T09:24:27.630Z,30
2023-04-21T09:25:34.570Z,40
2023-04-21T09:26:43.976Z,63
2023-04-21T09:27:56.970Z,45
2023-04-21T09:29:03.848Z,27
2023-04-21T09:30:10.804Z,50
2023-04-21T09:31:17.894Z,64
2023-04-21T09:32:24.581Z,34
2023-04-21T09:33:36.580Z,34
2023-04-21T09:34:38.428Z,25
2023-04-21T09:35:45.378Z,25
2023-04-21T09:36:52.180Z,55
2023-04-21T09:38:04.258Z,50
2023-04-21T09:39:30.414Z,42
2023-04-21T09:40:20.882Z,31
2023-04-21T09:41:28.646Z,31
2023-04-21T09:42:38.865Z,26
2023-04-21T09:43:42.375Z,54
2023-04-21T09:44:53.699Z,35
2023-04-21T09:45:57.063Z,26
2023-04-21T09:47:03.973Z,46
2023-04-21T09:48:10.897Z,47
2023-04-21T09:49:17.774Z,41
2023-04-21T09:50:44.704Z,33
2023-04-21T09:51:48.926Z,50
2023-04-21T09:52:38.330Z,56
2023-04-21T09:53:45.201Z,34
2023-04-21T09:54:52.112Z,49
2023-04-21T09:56:02.638Z,39
2023-04-21T09:57:10.710Z,33
2023-04-21T09:58:17.613Z,25
2023-04-21T09:59:24.486Z,32
2023-04-21T10:00:33.890Z,48
2023-04-21T10:01:40.851Z,40
2023-04-21T10:02:47.754Z,38
2023-04-21T10:03:54.502Z,46
2023-04-21T10:05:01.435Z,47
2023-04-21T10:06:08.277Z,35
2023-04-21T10:07:15.078Z,36
2023-04-21T10:08:21.944Z,50
2023-04-21T10:09:28.921Z,60
2023-04-21T10:10:38.958Z,37
2023-04-21T10:11:45.872Z,25
2023-04-21T10:12:53.615Z,31
2023-04-21T10:14:00.925Z,40
2023-04-21T10:15:08.525Z,40
2023-04-21T10:16:25.837Z,40
2023-04-21T10:17:32.639Z,39
2023-04-21T10:18:42.565Z,29
2023-04-21T10:19:49.391Z,42
2023-04-21T10:20:56.456Z,36
2023-04-21T10:22:08.127Z,35
2023-04-21T10:23:15.018Z,40
2023-04-21T10:24:30.157Z,34
2023-04-21T10:25:36.946Z,48
2023-04-21T10:26:43.766Z,43
2023-04-21T10:27:50.630Z,25
2023-04-21T10:28:57.618Z,25
2023-04-21T10:30:04.465Z,30
2023-04-21T10:31:21.811Z,29
2023-04-21T10:32:33.800Z,40
2023-04-21T10:33:43.506Z,30
2023-04-21T10:35:00.725Z,37
2023-04-21T10:36:07.738Z,47
2023-04-21T10:37:14.612Z,40
2023-04-21T10:38:21.570Z,36
2023-04-21T10:39:41.616Z,37
2023-04-21T10:40:48.539Z,40
2023-04-21T10:41:55.501Z,39
2023-04-21T10:43:02.357Z,38
2023-04-21T10:44:09.185Z,58
2023-04-21T10:45:16.122Z,31
2023-04-21T10:46:22.969Z,29
2023-04-21T10:47:37.675Z,27
2023-04-21T10:48:50.217Z,42
2023-04-21T10:49:57.064Z,45
2023-04-21T10:51:04.824Z,35
2023-04-21T10:52:11.641Z,45
2023-04-21T10:53:18.444Z,25
2023-04-21T10:54:25.336Z,39
2023-04-21T10:55:42.590Z,25
2023-04-21T10:56:49.469Z,59
2023-04-21T10:57:59.181Z,44
2023-04-21T10:59:08.588Z,68
2023-04-21T11:00:15.550Z,76
2023-04-21T11:01:22.458Z,37
2023-04-21T11:02:29.308Z,41
2023-04-21T11:03:36.535Z,39
2023-04-21T11:04:43.393Z,77
2023-04-21T11:05:55.860Z,42
2023-04-21T11:07:02.728Z,32
2023-04-21T11:08:14.920Z,49
2023-04-21T11:09:21.707Z,72
2023-04-21T11:10:28.534Z,37
2023-04-21T11:11:45.746Z,62
2023-04-21T11:12:52.610Z,62
2023-04-21T11:13:59.534Z,70
2023-04-21T11:15:06.518Z,61
2023-04-21T11:16:13.424Z,68
2023-04-21T11:17:20.401Z,40
2023-04-21T11:18:27.097Z,38
2023-04-21T11:19:41.849Z,41
2023-04-21T11:20:48.664Z,35
2023-04-21T11:21:55.558Z,51
2023-04-21T11:23:02.472Z,46
2023-04-21T11:24:09.301Z,42
2023-04-21T11:25:16.169Z,59
2023-04-21T11:26:23.775Z,69
2023-04-21T11:27:33.417Z,51
2023-04-21T11:28:40.302Z,58
2023-04-21T11:29:47.095Z,65
2023-04-21T11:30:54.894Z,52
2023-04-21T11:32:02.558Z,50
2023-04-21T11:33:09.409Z,25
2023-04-21T11:34:17.102Z,61
2023-04-21T11:35:23.905Z,51
2023-04-21T11:36:30.727Z,54
2023-04-21T11:37:37.679Z,69
2023-04-21T11:38:44.471Z,64
2023-04-21T11:39:51.279Z,58
2023-04-21T11:41:04.244Z,55
2023-04-21T11:42:11.176Z,59
2023-04-21T11:43:18.842Z,57
2023-04-21T11:44:25.785Z,43
2023-04-21T11:45:41.525Z,29
2023-04-21T11:46:48.339Z,42
2023-04-21T11:47:55.239Z,45
2023-04-21T11:49:01.994Z,45
2023-04-21T11:50:11.521Z,40
2023-04-21T11:51:20.662Z,58
2023-04-21T11:52:25.275Z,42
2023-04-21T11:53:32.039Z,34
2023-04-21T11:54:38.798Z,26
2023-04-21T11:55:45.719Z,29
2023-04-21T11:56:52.622Z,25
2023-04-21T11:57:59.449Z,33
2023-04-21T11:59:06.222Z,43
2023-04-21T12:00:13.089Z,55
2023-04-21T12:01:20.303Z,27
2023-04-21T12:02:27.380Z,50
2023-04-21T12:03:34.281Z,27
2023-04-21T12:04:41.253Z,26
2023-04-21T12:05:47.984Z,32
2023-04-21T12:06:54.756Z,47
2023-04-21T12:08:01.657Z,60
2023-04-21T12:09:08.572Z,68
2023-04-21T12:10:20.647Z,64
2023-04-21T12:11:27.540Z,42
2023-04-21T12:12:35.870Z,42
2023-04-21T12:13:41.468Z,45
2023-04-21T12:14:48.425Z,42
2023-04-21T12:15:55.312Z,39
2023-04-21T12:17:02.169Z,42
2023-04-21T12:18:09.898Z,44
2023-04-21T12:19:17.791Z,27
2023-04-21T12:20:35.210Z,41
2023-04-21T12:21:41.674Z,43
2023-04-21T12:22:48.517Z,43
2023-04-21T12:23:55.371Z,37
2023-04-21T12:25:02.214Z,33
2023-04-21T12:26:09.389Z,25
2023-04-21T12:27:22.627Z,27
2023-04-21T12:28:29.432Z,25
2023-04-21T12:29:37.439Z,50
2023-04-21T12:30:44.526Z,46
2023-04-21T12:31:51.366Z,37
2023-04-21T12:32:58.252Z,60
2023-04-21T12:34:05.009Z,35
2023-04-21T12:35:11.863Z,29
2023-04-21T12:36:18.766Z,27
2023-04-21T12:37:25.556Z,25
2023-04-21T12:38:32.433Z,29
2023-04-21T12:39:39.296Z,57
2023-04-21T12:40:46.260Z,57
2023-04-21T12:41:53.113Z,49
2023-04-21T12:42:59.945Z,55
2023-04-21T12:44:06.882Z,41
2023-04-21T12:45:13.718Z,44
2023-04-21T12:46:20.568Z,50
2023-04-21T12:47:27.367Z,44
2023-04-21T12:48:34.125Z,36
2023-04-21T12:49:41.069Z,44
2023-04-21T12:50:48.047Z,41
2023-04-21T12:51:55.593Z,56
2023-04-21T12:53:02.572Z,35
2023-04-21T12:54:09.430Z,45
2023-04-21T12:55:16.274Z,50
2023-04-21T12:56:23.083Z,37
2023-04-21T12:57:29.880Z,48
2023-04-21T12:58:36.714Z,27
2023-04-21T12:59:45.604Z,25
2023-04-21T13:00:51.141Z,40
2023-04-21T13:01:57.919Z,34
2023-04-21T13:03:05.099Z,47
2023-04-21T13:04:11.851Z,42
2023-04-21T13:05:18.432Z,39
2023-04-21T13:06:27.953Z,42
2023-04-21T13:07:34.781Z,52
2023-04-21T13:08:42.512Z,45
2023-04-21T13:09:49.378Z,37
2023-04-21T13:10:56.241Z,37
2023-04-21T13:12:03.774Z,40
2023-04-21T13:13:10.586Z,46
2023-04-21T13:14:17.719Z,47
2023-04-21T13:15:24.636Z,43
2023-04-21T13:16:31.608Z,35
2023-04-21T13:17:38.394Z,34
2023-04-21T13:18:45.188Z,38
2023-04-21T13:19:52.114Z,32
2023-04-21T13:20:58.799Z,40
2023-04-21T13:22:05.586Z,25
2023-04-21T13:23:12.383Z,38
2023-04-21T13:24:19.166Z,35
2023-04-21T13:25:26.059Z,44
2023-04-21T13:26:33.036Z,41
2023-04-21T13:27:39.822Z,53
2023-04-21T13:28:46.659Z,50
2023-04-21T13:29:53.430Z,31
2023-04-21T13:31:00.365Z,28
2023-04-21T13:32:07.237Z,51
2023-04-21T13:33:14.044Z,29
2023-04-21T13:34:20.809Z,44
2023-04-21T13:35:27.857Z,26
2023-04-21T13:36:34.759Z,47
2023-04-21T13:37:41.564Z,40
2023-04-21T13:38:48.343Z,34
2023-04-21T13:39:55.136Z,51
2023-04-21T13:41:02.400Z,31
2023-04-21T13:42:09.236Z,36
2023-04-21T13:43:16.206Z,30
2023-04-21T13:44:23.030Z,31
2023-04-21T13:45:30.760Z,33
2023-04-21T13:46:37.790Z,29
2023-04-21T13:47:44.658Z,40
2023-04-21T13:48:51.356Z,30
2023-04-21T13:49:58.152Z,25
2023-04-21T13:51:05.540Z,33
2023-04-21T13:52:12.352Z,35
2023-04-21T13:53:21.232Z,38
2023-04-21T13:54:27.892Z,37
2023-04-21T13:55:34.470Z,39
2023-04-21T13:56:41.401Z,25
2023-04-21T13:57:48.234Z,45
2023-04-21T13:58:55.087Z,32
2023-04-21T14:00:01.927Z,27
2023-04-21T14:01:09.138Z,25
2023-04-21T14:02:16.064Z,53
2023-04-21T14:03:23.122Z,39
2023-04-21T14:04:29.832Z,53
2023-04-21T14:05:36.716Z,53
2023-04-21T14:06:43.352Z,51
2023-04-21T14:07:50.239Z,56
2023-04-21T14:08:57.206Z,51
2023-04-21T14:10:04.063Z,62
2023-04-21T14:11:11.230Z,63
2023-04-21T14:12:18.134Z,47
2023-04-21T14:13:34.530Z,49
2023-04-21T14:15:38.744Z,41
2023-04-21T14:16:45.682Z,45
2023-04-21T14:17:52.515Z,42
2023-04-21T14:18:59.493Z,42
2023-04-21T14:20:06.352Z,39
2023-04-21T14:21:13.443Z,38
2023-04-21T14:22:20.366Z,43
2023-04-21T14:23:27.236Z,53
2023-04-21T14:24:34.055Z,40
2023-04-21T14:25:40.864Z,56
2023-04-21T14:26:47.730Z,45
2023-04-21T14:27:54.483Z,53
2023-04-21T14:29:01.312Z,39
2023-04-21T14:30:08.145Z,48
2023-04-21T14:31:15.494Z,41
2023-04-21T14:32:22.522Z,57
2023-04-21T14:33:29.312Z,45
2023-04-21T14:34:35.973Z,41
2023-04-21T14:35:42.747Z,39
2023-04-21T14:36:49.553Z,34
2023-04-21T14:37:56.485Z,43
2023-04-21T14:39:03.278Z,43
2023-04-21T14:40:10.099Z,47
2023-04-21T14:41:16.930Z,52
2023-04-21T14:42:24.243Z,48
2023-04-21T14:43:31.029Z,47
2023-04-21T14:44:37.896Z,49
2023-04-21T14:45:44.774Z,65
2023-04-21T14:47:01.369Z,41
2023-04-21T14:47:58.432Z,38
2023-04-21T14:49:05.275Z,46
2023-04-21T14:50:12.131Z,30
2023-04-21T14:51:18.926Z,53
2023-04-21T14:52:26.006Z,68
2023-04-21T14:53:32.848Z,62
2023-04-21T14:54:39.571Z,48
2023-04-21T14:55:46.415Z,44
2023-04-21T14:56:58.198Z,49
2023-04-21T14:58:00.022Z,44
2023-04-21T14:59:06.810Z,58
2023-04-21T15:00:13.581Z,66
2023-04-21T15:01:22.145Z,47
2023-04-21T15:02:27.766Z,43
2023-04-21T15:03:34.602Z,40
2023-04-21T15:04:41.399Z,39
2023-04-21T15:05:48.260Z,43
2023-04-21T15:06:54.979Z,46
2023-04-21T15:08:01.749Z,54
2023-04-21T15:09:08.677Z,44
2023-04-21T15:10:15.503Z,52
2023-04-21T15:11:22.360Z,45
2023-04-21T15:12:29.223Z,49
2023-04-21T15:13:36.060Z,55
2023-04-21T15:14:42.789Z,47
2023-04-21T15:15:49.933Z,36
2023-04-21T15:16:56.785Z,45
2023-04-21T15:18:03.651Z,50
2023-04-21T15:19:10.379Z,46
2023-04-21T15:20:17.201Z,38
2023-04-21T15:21:24.890Z,41
2023-04-21T15:22:32.439Z,36
2023-04-21T15:23:39.304Z,35
2023-04-21T15:24:46.286Z,37
2023-04-21T15:25:53.110Z,35
2023-04-21T15:26:59.932Z,51
2023-04-21T15:28:06.817Z,40
2023-04-21T15:29:13.580Z,37
2023-04-21T15:30:20.427Z,49
2023-04-21T15:31:27.263Z,41
2023-04-21T15:32:34.061Z,43
2023-04-21T15:33:40.825Z,40
2023-04-21T15:34:47.665Z,38
2023-04-21T15:35:54.452Z,48
2023-04-21T15:37:01.222Z,57
2023-04-21T15:38:08.073Z,41
2023-04-21T15:39:14.964Z,37
2023-04-21T15:40:21.801Z,52
2023-04-21T15:41:28.727Z,39
2023-04-21T15:42:35.556Z,49
2023-04-21T15:43:42.413Z,47
2023-04-21T15:44:49.438Z,39
2023-04-21T15:45:56.311Z,56
2023-04-21T15:47:03.384Z,51
2023-04-21T15:48:10.070Z,42
2023-04-21T15:49:17.797Z,45
2023-04-21T15:50:25.053Z,51
2023-04-21T15:51:32.843Z,42
2023-04-21T15:52:40.115Z,41